sensor_id;sensor_type;location;lat;lon;timestamp;P1;durP1;ratioP1;P2;durP2;ratioP2
33824;SDS011;20127;48.962;8.342;2023-04-25T00:00:10;5.03;;;4.03;;
33824;SDS011;20127;48.962;8.342;2023-04-25T00:03:12;6.63;;;3.92;;
33824;SDS011;20127;48.962;8.342;2023-04-25T00:06:14;3.90;;;3.60;;
33824;SDS011;20127;48.962;8.342;2023-04-25T00:09:15;5.43;;;4.68;;
33824;SDS011;20127;48.962;8.342;2023-04-25T00:12:18;5.82;;;4.63;;
33824;SDS011;20127;48.962;8.342;2023-04-25T00:15:21;4.53;;;4.10;;
33824;SDS011;20127;48.962;8.342;2023-04-25T00:18:24;5.68;;;4.63;;
33824;SDS011;20127;48.962;8.342;2023-04-25T00:21:28;5.60;;;4.68;;
33824;SDS011;20127;48.962;8.342;2023-04-25T00:24:31;5.43;;;4.25;;
33824;SDS011;20127;48.962;8.342;2023-04-25T00:27:34;4.90;;;3.75;;
33824;SDS011;20127;48.962;8.342;2023-04-25T00:30:36;4.20;;;3.80;;
33824;SDS011;20127;48.962;8.342;2023-04-25T00:33:38;4.47;;;4.03;;
33824;SDS011;20127;48.962;8.342;2023-04-25T00:36:40;3.80;;;3.50;;
33824;SDS011;20127;48.962;8.342;2023-04-25T00:39:41;5.63;;;3.50;;
33824;SDS011;20127;48.962;8.342;2023-04-25T00:42:44;6.22;;;4.88;;
33824;SDS011;20127;48.962;8.342;2023-04-25T00:45:47;3.75;;;3.42;;
33824;SDS011;20127;48.962;8.342;2023-04-25T00:48:50;3.10;;;2.60;;
33824;SDS011;20127;48.962;8.342;2023-04-25T00:51:51;3.88;;;3.58;;
33824;SDS011;20127;48.962;8.342;2023-04-25T00:54:53;4.85;;;3.38;;
33824;SDS011;20127;48.962;8.342;2023-04-25T00:57:56;6.05;;;4.22;;
33824;SDS011;20127;48.962;8.342;2023-04-25T01:00:58;7.45;;;4.55;;
33824;SDS011;20127;48.962;8.342;2023-04-25T01:04:02;6.45;;;4.80;;
33824;SDS011;20127;48.962;8.342;2023-04-25T01:07:03;4.85;;;4.40;;
33824;SDS011;20127;48.962;8.342;2023-04-25T01:10:06;4.05;;;3.75;;
33824;SDS011;20127;48.962;8.342;2023-04-25T01:13:10;6.38;;;5.78;;
33824;SDS011;20127;48.962;8.342;2023-04-25T01:16:11;4.22;;;3.83;;
33824;SDS011;20127;48.962;8.342;2023-04-25T01:19:13;5.22;;;3.97;;
33824;SDS011;20127;48.962;8.342;2023-04-25T01:22:19;5.50;;;4.28;;
33824;SDS011;20127;48.962;8.342;2023-04-25T01:25:21;5.78;;;4.65;;
33824;SDS011;20127;48.962;8.342;2023-04-25T01:28:23;4.90;;;4.50;;
33824;SDS011;20127;48.962;8.342;2023-04-25T01:31:25;4.80;;;3.58;;
33824;SDS011;20127;48.962;8.342;2023-04-25T01:34:27;5.28;;;3.83;;
33824;SDS011;20127;48.962;8.342;2023-04-25T01:37:30;3.92;;;3.63;;
33824;SDS011;20127;48.962;8.342;2023-04-25T01:40:32;4.32;;;3.92;;
33824;SDS011;20127;48.962;8.342;2023-04-25T01:43:35;4.82;;;3.70;;
33824;SDS011;20127;48.962;8.342;2023-04-25T01:46:37;5.32;;;4.35;;
33824;SDS011;20127;48.962;8.342;2023-04-25T01:49:39;5.10;;;4.60;;
33824;SDS011;20127;48.962;8.342;2023-04-25T01:52:42;5.63;;;3.65;;
33824;SDS011;20127;48.962;8.342;2023-04-25T01:55:44;8.20;;;5.15;;
33824;SDS011;20127;48.962;8.342;2023-04-25T01:58:46;4.35;;;3.95;;
33824;SDS011;20127;48.962;8.342;2023-04-25T02:01:47;5.32;;;4.50;;
33824;SDS011;20127;48.962;8.342;2023-04-25T02:04:49;6.30;;;4.03;;
33824;SDS011;20127;48.962;8.342;2023-04-25T02:07:52;4.18;;;3.78;;
33824;SDS011;20127;48.962;8.342;2023-04-25T02:10:54;6.28;;;3.70;;
33824;SDS011;20127;48.962;8.342;2023-04-25T02:13:55;8.85;;;5.03;;
33824;SDS011;20127;48.962;8.342;2023-04-25T02:16:57;5.47;;;4.13;;
33824;SDS011;20127;48.962;8.342;2023-04-25T02:19:59;4.93;;;4.43;;
33824;SDS011;20127;48.962;8.342;2023-04-25T02:23:02;4.30;;;3.90;;
33824;SDS011;20127;48.962;8.342;2023-04-25T02:26:03;5.63;;;4.72;;
33824;SDS011;20127;48.962;8.342;2023-04-25T02:29:06;6.65;;;4.43;;
33824;SDS011;20127;48.962;8.342;2023-04-25T02:32:07;4.72;;;4.22;;
33824;SDS011;20127;48.962;8.342;2023-04-25T02:35:09;4.45;;;4.05;;
33824;SDS011;20127;48.962;8.342;2023-04-25T02:38:12;4.97;;;4.35;;
33824;SDS011;20127;48.962;8.342;2023-04-25T02:41:14;7.15;;;5.13;;
33824;SDS011;20127;48.962;8.342;2023-04-25T02:44:16;6.72;;;3.65;;
33824;SDS011;20127;48.962;8.342;2023-04-25T02:47:17;4.72;;;4.00;;
33824;SDS011;20127;48.962;8.342;2023-04-25T02:50:19;4.78;;;3.05;;
33824;SDS011;20127;48.962;8.342;2023-04-25T02:53:22;6.78;;;3.53;;
33824;SDS011;20127;48.962;8.342;2023-04-25T02:56:24;4.82;;;3.88;;
33824;SDS011;20127;48.962;8.342;2023-04-25T02:59:26;3.53;;;3.22;;
33824;SDS011;20127;48.962;8.342;2023-04-25T03:02:28;5.85;;;5.40;;
33824;SDS011;20127;48.962;8.342;2023-04-25T03:05:30;5.43;;;3.97;;
33824;SDS011;20127;48.962;8.342;2023-04-25T03:08:33;3.80;;;3.40;;
33824;SDS011;20127;48.962;8.342;2023-04-25T03:11:34;4.57;;;3.53;;
33824;SDS011;20127;48.962;8.342;2023-04-25T03:14:36;4.43;;;3.83;;
33824;SDS011;20127;48.962;8.342;2023-04-25T03:17:38;4.30;;;3.90;;
33824;SDS011;20127;48.962;8.342;2023-04-25T03:20:40;5.85;;;4.25;;
33824;SDS011;20127;48.962;8.342;2023-04-25T03:23:44;4.20;;;3.50;;
33824;SDS011;20127;48.962;8.342;2023-04-25T03:26:45;5.25;;;4.07;;
33824;SDS011;20127;48.962;8.342;2023-04-25T03:29:47;5.80;;;3.95;;
33824;SDS011;20127;48.962;8.342;2023-04-25T03:32:49;4.93;;;4.43;;
33824;SDS011;20127;48.962;8.342;2023-04-25T03:35:51;8.63;;;4.65;;
33824;SDS011;20127;48.962;8.342;2023-04-25T03:38:54;5.18;;;4.68;;
33824;SDS011;20127;48.962;8.342;2023-04-25T03:41:56;5.30;;;3.50;;
33824;SDS011;20127;48.962;8.342;2023-04-25T03:44:57;7.82;;;5.03;;
33824;SDS011;20127;48.962;8.342;2023-04-25T03:47:59;3.95;;;3.65;;
33824;SDS011;20127;48.962;8.342;2023-04-25T03:51:00;5.47;;;4.65;;
33824;SDS011;20127;48.962;8.342;2023-04-25T03:54:04;5.18;;;4.53;;
33824;SDS011;20127;48.962;8.342;2023-04-25T03:57:05;4.45;;;4.05;;
33824;SDS011;20127;48.962;8.342;2023-04-25T04:00:07;8.27;;;5.38;;
33824;SDS011;20127;48.962;8.342;2023-04-25T04:03:10;7.60;;;5.18;;
33824;SDS011;20127;48.962;8.342;2023-04-25T04:06:12;6.20;;;4.32;;
33824;SDS011;20127;48.962;8.342;2023-04-25T04:09:16;5.57;;;5.05;;
33824;SDS011;20127;48.962;8.342;2023-04-25T04:12:19;6.32;;;4.63;;
33824;SDS011;20127;48.962;8.342;2023-04-25T04:15:21;6.05;;;5.10;;
33824;SDS011;20127;48.962;8.342;2023-04-25T04:18:22;7.93;;;5.53;;
33824;SDS011;20127;48.962;8.342;2023-04-25T04:21:24;5.78;;;5.22;;
33824;SDS011;20127;48.962;8.342;2023-04-25T04:24:28;7.05;;;4.68;;
33824;SDS011;20127;48.962;8.342;2023-04-25T04:27:30;9.55;;;6.13;;
33824;SDS011;20127;48.962;8.342;2023-04-25T04:30:32;5.13;;;4.63;;
33824;SDS011;20127;48.962;8.342;2023-04-25T04:33:36;5.93;;;5.32;;
33824;SDS011;20127;48.962;8.342;2023-04-25T04:36:38;5.70;;;5.20;;
33824;SDS011;20127;48.962;8.342;2023-04-25T04:39:42;7.20;;;5.18;;
33824;SDS011;20127;48.962;8.342;2023-04-25T04:42:44;5.88;;;5.03;;
33824;SDS011;20127;48.962;8.342;2023-04-25T04:45:46;5.85;;;5.28;;
33824;SDS011;20127;48.962;8.342;2023-04-25T04:48:49;6.30;;;5.70;;
33824;SDS011;20127;48.962;8.342;2023-04-25T04:51:51;6.13;;;5.53;;
33824;SDS011;20127;48.962;8.342;2023-04-25T04:54:55;6.88;;;6.00;;
33824;SDS011;20127;48.962;8.342;2023-04-25T04:57:57;7.47;;;6.72;;
33824;SDS011;20127;48.962;8.342;2023-04-25T05:00:59;8.05;;;7.30;;
33824;SDS011;20127;48.962;8.342;2023-04-25T05:04:00;10.82;;;5.70;;
33824;SDS011;20127;48.962;8.342;2023-04-25T05:07:03;5.68;;;5.05;;
33824;SDS011;20127;48.962;8.342;2023-04-25T05:10:07;6.85;;;6.15;;
33824;SDS011;20127;48.962;8.342;2023-04-25T05:13:09;6.43;;;4.88;;
33824;SDS011;20127;48.962;8.342;2023-04-25T05:16:11;9.38;;;6.50;;
33824;SDS011;20127;48.962;8.342;2023-04-25T05:19:13;7.70;;;6.90;;
33824;SDS011;20127;48.962;8.342;2023-04-25T05:22:14;5.93;;;5.30;;
33824;SDS011;20127;48.962;8.342;2023-04-25T05:25:17;6.53;;;5.80;;
33824;SDS011;20127;48.962;8.342;2023-04-25T05:28:19;6.18;;;5.57;;
33824;SDS011;20127;48.962;8.342;2023-04-25T05:31:21;9.80;;;7.25;;
33824;SDS011;20127;48.962;8.342;2023-04-25T05:34:22;6.32;;;5.30;;
33824;SDS011;20127;48.962;8.342;2023-04-25T05:37:24;11.18;;;5.78;;
33824;SDS011;20127;48.962;8.342;2023-04-25T05:40:27;7.30;;;5.78;;
33824;SDS011;20127;48.962;8.342;2023-04-25T05:43:29;6.07;;;5.47;;
33824;SDS011;20127;48.962;8.342;2023-04-25T05:46:31;6.45;;;5.72;;
33824;SDS011;20127;48.962;8.342;2023-04-25T05:49:33;8.40;;;6.05;;
33824;SDS011;20127;48.962;8.342;2023-04-25T05:52:35;6.63;;;5.75;;
33824;SDS011;20127;48.962;8.342;2023-04-25T05:55:38;8.30;;;6.05;;
33824;SDS011;20127;48.962;8.342;2023-04-25T05:58:40;6.32;;;5.50;;
33824;SDS011;20127;48.962;8.342;2023-04-25T06:01:41;6.57;;;5.95;;
33824;SDS011;20127;48.962;8.342;2023-04-25T06:04:43;7.38;;;6.05;;
33824;SDS011;20127;48.962;8.342;2023-04-25T06:07:45;6.10;;;5.50;;
33824;SDS011;20127;48.962;8.342;2023-04-25T06:10:48;8.82;;;6.07;;
33824;SDS011;20127;48.962;8.342;2023-04-25T06:13:49;5.00;;;4.50;;
33824;SDS011;20127;48.962;8.342;2023-04-25T06:16:51;8.38;;;6.18;;
33824;SDS011;20127;48.962;8.342;2023-04-25T06:19:53;7.60;;;6.40;;
33824;SDS011;20127;48.962;8.342;2023-04-25T06:22:54;8.52;;;6.72;;
33824;SDS011;20127;48.962;8.342;2023-04-25T06:25:58;7.70;;;6.47;;
33824;SDS011;20127;48.962;8.342;2023-04-25T06:29:00;7.75;;;6.28;;
33824;SDS011;20127;48.962;8.342;2023-04-25T06:32:01;10.02;;;7.40;;
33824;SDS011;20127;48.962;8.342;2023-04-25T06:35:03;13.60;;;7.03;;
33824;SDS011;20127;48.962;8.342;2023-04-25T06:38:06;9.43;;;7.65;;
33824;SDS011;20127;48.962;8.342;2023-04-25T06:41:09;12.07;;;7.82;;
33824;SDS011;20127;48.962;8.342;2023-04-25T06:44:10;7.88;;;7.07;;
33824;SDS011;20127;48.962;8.342;2023-04-25T06:47:12;7.45;;;6.65;;
33824;SDS011;20127;48.962;8.342;2023-04-25T06:50:14;11.50;;;8.50;;
33824;SDS011;20127;48.962;8.342;2023-04-25T06:53:16;10.48;;;8.15;;
33824;SDS011;20127;48.962;8.342;2023-04-25T06:56:19;10.65;;;7.97;;
33824;SDS011;20127;48.962;8.342;2023-04-25T06:59:22;10.13;;;8.52;;
33824;SDS011;20127;48.962;8.342;2023-04-25T07:02:23;10.35;;;7.53;;
33824;SDS011;20127;48.962;8.342;2023-04-25T07:05:25;12.07;;;7.80;;
33824;SDS011;20127;48.962;8.342;2023-04-25T07:08:27;9.27;;;7.65;;
33824;SDS011;20127;48.962;8.342;2023-04-25T07:11:31;10.35;;;7.82;;
33824;SDS011;20127;48.962;8.342;2023-04-25T07:14:32;11.27;;;7.13;;
33824;SDS011;20127;48.962;8.342;2023-04-25T07:17:34;10.23;;;7.68;;
33824;SDS011;20127;48.962;8.342;2023-04-25T07:20:36;8.93;;;7.50;;
33824;SDS011;20127;48.962;8.342;2023-04-25T07:23:37;8.45;;;7.53;;
33824;SDS011;20127;48.962;8.342;2023-04-25T07:26:42;9.40;;;7.88;;
33824;SDS011;20127;48.962;8.342;2023-04-25T07:29:43;10.63;;;8.00;;
33824;SDS011;20127;48.962;8.342;2023-04-25T07:32:45;9.32;;;8.13;;
33824;SDS011;20127;48.962;8.342;2023-04-25T07:35:47;9.57;;;8.57;;
33824;SDS011;20127;48.962;8.342;2023-04-25T07:38:48;8.70;;;7.80;;
33824;SDS011;20127;48.962;8.342;2023-04-25T07:41:51;8.77;;;7.03;;
33824;SDS011;20127;48.962;8.342;2023-04-25T07:44:53;8.88;;;8.00;;
33824;SDS011;20127;48.962;8.342;2023-04-25T07:47:55;10.18;;;7.80;;
33824;SDS011;20127;48.962;8.342;2023-04-25T07:50:56;8.70;;;7.30;;
33824;SDS011;20127;48.962;8.342;2023-04-25T07:53:58;11.10;;;7.95;;
33824;SDS011;20127;48.962;8.342;2023-04-25T07:57:02;15.07;;;12.75;;
33824;SDS011;20127;48.962;8.342;2023-04-25T08:00:04;10.27;;;9.20;;
33824;SDS011;20127;48.962;8.342;2023-04-25T08:03:09;12.10;;;10.80;;
33824;SDS011;20127;48.962;8.342;2023-04-25T08:06:11;12.90;;;9.70;;
33824;SDS011;20127;48.962;8.342;2023-04-25T08:09:13;9.32;;;8.32;;
33824;SDS011;20127;48.962;8.342;2023-04-25T08:12:16;12.30;;;10.48;;
33824;SDS011;20127;48.962;8.342;2023-04-25T08:15:18;11.00;;;9.45;;
33824;SDS011;20127;48.962;8.342;2023-04-25T08:18:20;10.40;;;9.30;;
33824;SDS011;20127;48.962;8.342;2023-04-25T08:21:22;12.80;;;9.88;;
33824;SDS011;20127;48.962;8.342;2023-04-25T08:24:23;17.92;;;10.73;;
33824;SDS011;20127;48.962;8.342;2023-04-25T08:27:27;13.27;;;11.07;;
33824;SDS011;20127;48.962;8.342;2023-04-25T08:30:28;16.40;;;12.57;;
33824;SDS011;20127;48.962;8.342;2023-04-25T08:33:30;14.90;;;11.02;;
33824;SDS011;20127;48.962;8.342;2023-04-25T08:36:32;12.38;;;10.60;;
33824;SDS011;20127;48.962;8.342;2023-04-25T08:39:34;14.77;;;11.57;;
33824;SDS011;20127;48.962;8.342;2023-04-25T08:42:37;13.60;;;10.93;;
33824;SDS011;20127;48.962;8.342;2023-04-25T08:45:41;14.35;;;12.13;;
33824;SDS011;20127;48.962;8.342;2023-04-25T08:48:44;16.13;;;13.35;;
33824;SDS011;20127;48.962;8.342;2023-04-25T08:51:46;20.17;;;13.23;;
33824;SDS011;20127;48.962;8.342;2023-04-25T08:54:50;14.95;;;13.05;;
33824;SDS011;20127;48.962;8.342;2023-04-25T08:57:55;19.42;;;13.98;;
33824;SDS011;20127;48.962;8.342;2023-04-25T09:00:58;20.60;;;14.02;;
33824;SDS011;20127;48.962;8.342;2023-04-25T09:04:01;18.25;;;13.90;;
33824;SDS011;20127;48.962;8.342;2023-04-25T09:07:02;18.23;;;14.60;;
33824;SDS011;20127;48.962;8.342;2023-04-25T09:10:05;19.63;;;14.32;;
33824;SDS011;20127;48.962;8.342;2023-04-25T09:13:09;20.25;;;13.75;;
33824;SDS011;20127;48.962;8.342;2023-04-25T09:16:12;19.95;;;13.80;;
33824;SDS011;20127;48.962;8.342;2023-04-25T09:19:20;17.25;;;14.02;;
33824;SDS011;20127;48.962;8.342;2023-04-25T09:22:23;15.90;;;13.85;;
33824;SDS011;20127;48.962;8.342;2023-04-25T09:25:25;22.63;;;14.93;;
33824;SDS011;20127;48.962;8.342;2023-04-25T09:28:28;18.83;;;14.13;;
33824;SDS011;20127;48.962;8.342;2023-04-25T09:31:29;16.85;;;13.20;;
33824;SDS011;20127;48.962;8.342;2023-04-25T09:34:37;17.95;;;14.05;;
33824;SDS011;20127;48.962;8.342;2023-04-25T09:37:40;17.30;;;13.05;;
33824;SDS011;20127;48.962;8.342;2023-04-25T09:40:42;22.17;;;13.63;;
33824;SDS011;20127;48.962;8.342;2023-04-25T09:43:46;17.00;;;13.82;;
33824;SDS011;20127;48.962;8.342;2023-04-25T09:46:50;19.98;;;15.15;;
33824;SDS011;20127;48.962;8.342;2023-04-25T09:49:54;16.60;;;14.55;;
33824;SDS011;20127;48.962;8.342;2023-04-25T09:53:02;16.10;;;13.77;;
33824;SDS011;20127;48.962;8.342;2023-04-25T09:56:05;17.25;;;14.95;;
33824;SDS011;20127;48.962;8.342;2023-04-25T09:59:09;21.83;;;13.95;;
33824;SDS011;20127;48.962;8.342;2023-04-25T10:02:14;20.23;;;16.13;;
33824;SDS011;20127;48.962;8.342;2023-04-25T10:05:18;22.00;;;13.02;;
33824;SDS011;20127;48.962;8.342;2023-04-25T10:08:21;18.67;;;11.95;;
33824;SDS011;20127;48.962;8.342;2023-04-25T10:11:30;14.13;;;11.32;;
33824;SDS011;20127;48.962;8.342;2023-04-25T10:14:35;16.02;;;10.18;;
33824;SDS011;20127;48.962;8.342;2023-04-25T10:17:37;10.80;;;8.07;;
33824;SDS011;20127;48.962;8.342;2023-04-25T10:20:40;15.35;;;10.13;;
33824;SDS011;20127;48.962;8.342;2023-04-25T10:23:41;12.25;;;9.32;;
33824;SDS011;20127;48.962;8.342;2023-04-25T10:26:43;14.15;;;10.70;;
33824;SDS011;20127;48.962;8.342;2023-04-25T10:29:47;12.27;;;10.07;;
33824;SDS011;20127;48.962;8.342;2023-04-25T10:33:08;15.68;;;12.80;;
33824;SDS011;20127;48.962;8.342;2023-04-25T10:36:18;21.65;;;13.30;;
33824;SDS011;20127;48.962;8.342;2023-04-25T10:39:23;15.77;;;12.95;;
33824;SDS011;20127;48.962;8.342;2023-04-25T10:42:26;17.30;;;13.35;;
33824;SDS011;20127;48.962;8.342;2023-04-25T10:45:29;16.48;;;12.02;;
33824;SDS011;20127;48.962;8.342;2023-04-25T10:48:30;18.48;;;13.82;;
33824;SDS011;20127;48.962;8.342;2023-04-25T10:51:33;21.40;;;14.38;;
33824;SDS011;20127;48.962;8.342;2023-04-25T10:54:38;18.08;;;11.70;;
33824;SDS011;20127;48.962;8.342;2023-04-25T10:57:42;17.88;;;13.10;;
33824;SDS011;20127;48.962;8.342;2023-04-25T11:00:47;25.08;;;13.13;;
33824;SDS011;20127;48.962;8.342;2023-04-25T11:03:56;19.38;;;11.88;;
33824;SDS011;20127;48.962;8.342;2023-04-25T11:07:03;19.70;;;14.27;;
33824;SDS011;20127;48.962;8.342;2023-04-25T11:10:10;18.50;;;11.10;;
33824;SDS011;20127;48.962;8.342;2023-04-25T11:13:12;20.58;;;12.30;;
33824;SDS011;20127;48.962;8.342;2023-04-25T11:16:15;19.50;;;11.68;;
33824;SDS011;20127;48.962;8.342;2023-04-25T11:19:18;24.38;;;13.32;;
33824;SDS011;20127;48.962;8.342;2023-04-25T11:22:20;19.55;;;13.07;;
33824;SDS011;20127;48.962;8.342;2023-04-25T11:25:23;21.33;;;13.60;;
33824;SDS011;20127;48.962;8.342;2023-04-25T11:28:26;23.55;;;13.88;;
33824;SDS011;20127;48.962;8.342;2023-04-25T11:31:29;22.13;;;13.02;;
33824;SDS011;20127;48.962;8.342;2023-04-25T11:34:32;23.27;;;13.90;;
33824;SDS011;20127;48.962;8.342;2023-04-25T11:37:34;22.05;;;13.55;;
33824;SDS011;20127;48.962;8.342;2023-04-25T11:40:36;18.30;;;12.90;;
33824;SDS011;20127;48.962;8.342;2023-04-25T11:43:37;22.40;;;14.93;;
33824;SDS011;20127;48.962;8.342;2023-04-25T11:46:40;24.98;;;15.93;;
33824;SDS011;20127;48.962;8.342;2023-04-25T11:49:43;21.77;;;13.35;;
33824;SDS011;20127;48.962;8.342;2023-04-25T11:52:45;21.92;;;14.40;;
33824;SDS011;20127;48.962;8.342;2023-04-25T11:55:48;22.23;;;13.63;;
33824;SDS011;20127;48.962;8.342;2023-04-25T11:58:56;20.83;;;14.10;;
33824;SDS011;20127;48.962;8.342;2023-04-25T12:02:00;18.77;;;12.93;;
33824;SDS011;20127;48.962;8.342;2023-04-25T12:05:04;17.85;;;13.07;;
33824;SDS011;20127;48.962;8.342;2023-04-25T12:08:11;20.13;;;14.63;;
33824;SDS011;20127;48.962;8.342;2023-04-25T12:11:20;24.48;;;14.82;;
33824;SDS011;20127;48.962;8.342;2023-04-25T12:14:22;23.70;;;14.20;;
33824;SDS011;20127;48.962;8.342;2023-04-25T12:17:26;22.42;;;16.13;;
33824;SDS011;20127;48.962;8.342;2023-04-25T12:20:31;17.02;;;13.75;;
33824;SDS011;20127;48.962;8.342;2023-04-25T12:23:32;19.25;;;13.55;;
33824;SDS011;20127;48.962;8.342;2023-04-25T12:26:45;21.08;;;14.80;;
33824;SDS011;20127;48.962;8.342;2023-04-25T12:29:50;24.08;;;15.00;;
33824;SDS011;20127;48.962;8.342;2023-04-25T12:32:54;20.17;;;14.00;;
33824;SDS011;20127;48.962;8.342;2023-04-25T12:35:56;19.42;;;14.52;;
33824;SDS011;20127;48.962;8.342;2023-04-25T12:38:58;18.83;;;12.77;;
33824;SDS011;20127;48.962;8.342;2023-04-25T12:42:04;20.33;;;13.27;;
33824;SDS011;20127;48.962;8.342;2023-04-25T12:45:08;21.15;;;13.93;;
33824;SDS011;20127;48.962;8.342;2023-04-25T12:48:11;18.65;;;11.45;;
33824;SDS011;20127;48.962;8.342;2023-04-25T12:51:12;18.95;;;11.00;;
33824;SDS011;20127;48.962;8.342;2023-04-25T12:54:14;14.32;;;10.00;;
33824;SDS011;20127;48.962;8.342;2023-04-25T12:57:16;15.82;;;11.07;;
33824;SDS011;20127;48.962;8.342;2023-04-25T13:00:18;12.27;;;9.45;;
33824;SDS011;20127;48.962;8.342;2023-04-25T13:03:21;12.52;;;8.65;;
33824;SDS011;20127;48.962;8.342;2023-04-25T13:06:24;14.00;;;9.73;;
33824;SDS011;20127;48.962;8.342;2023-04-25T13:09:26;11.45;;;9.38;;
33824;SDS011;20127;48.962;8.342;2023-04-25T13:12:28;14.00;;;9.55;;
33824;SDS011;20127;48.962;8.342;2023-04-25T13:15:30;14.63;;;9.60;;
33824;SDS011;20127;48.962;8.342;2023-04-25T13:18:33;12.13;;;9.38;;
33824;SDS011;20127;48.962;8.342;2023-04-25T13:21:35;14.93;;;8.90;;
33824;SDS011;20127;48.962;8.342;2023-04-25T13:24:37;12.57;;;8.82;;
33824;SDS011;20127;48.962;8.342;2023-04-25T13:27:39;10.05;;;7.90;;
33824;SDS011;20127;48.962;8.342;2023-04-25T13:30:40;9.32;;;7.38;;
33824;SDS011;20127;48.962;8.342;2023-04-25T13:33:45;8.98;;;6.28;;
33824;SDS011;20127;48.962;8.342;2023-04-25T13:36:47;8.02;;;5.78;;
33824;SDS011;20127;48.962;8.342;2023-04-25T13:39:48;9.15;;;6.32;;
33824;SDS011;20127;48.962;8.342;2023-04-25T13:42:50;6.47;;;5.22;;
33824;SDS011;20127;48.962;8.342;2023-04-25T13:45:52;5.10;;;3.75;;
33824;SDS011;20127;48.962;8.342;2023-04-25T13:48:55;3.92;;;3.53;;
33824;SDS011;20127;48.962;8.342;2023-04-25T13:51:57;4.55;;;3.47;;
33824;SDS011;20127;48.962;8.342;2023-04-25T13:54:59;2.78;;;2.45;;
33824;SDS011;20127;48.962;8.342;2023-04-25T13:58:03;2.55;;;2.35;;
33824;SDS011;20127;48.962;8.342;2023-04-25T14:01:07;3.67;;;3.13;;
33824;SDS011;20127;48.962;8.342;2023-04-25T14:04:10;3.28;;;2.67;;
33824;SDS011;20127;48.962;8.342;2023-04-25T14:07:12;8.88;;;5.80;;
33824;SDS011;20127;48.962;8.342;2023-04-25T14:10:16;4.30;;;3.00;;
33824;SDS011;20127;48.962;8.342;2023-04-25T14:13:17;4.55;;;2.92;;
33824;SDS011;20127;48.962;8.342;2023-04-25T14:16:19;4.03;;;3.72;;
33824;SDS011;20127;48.962;8.342;2023-04-25T14:19:24;4.63;;;3.33;;
33824;SDS011;20127;48.962;8.342;2023-04-25T14:22:26;3.92;;;3.15;;
33824;SDS011;20127;48.962;8.342;2023-04-25T14:25:27;4.07;;;3.13;;
33824;SDS011;20127;48.962;8.342;2023-04-25T14:28:30;6.55;;;3.13;;
33824;SDS011;20127;48.962;8.342;2023-04-25T14:31:32;4.10;;;3.42;;
33824;SDS011;20127;48.962;8.342;2023-04-25T14:34:36;5.22;;;2.65;;
33824;SDS011;20127;48.962;8.342;2023-04-25T14:37:37;6.03;;;3.40;;
33824;SDS011;20127;48.962;8.342;2023-04-25T14:40:39;6.05;;;3.63;;
33824;SDS011;20127;48.962;8.342;2023-04-25T14:43:41;3.85;;;3.42;;
33824;SDS011;20127;48.962;8.342;2023-04-25T14:46:42;5.20;;;3.15;;
33824;SDS011;20127;48.962;8.342;2023-04-25T14:49:46;2.75;;;2.55;;
33824;SDS011;20127;48.962;8.342;2023-04-25T14:52:53;5.15;;;3.05;;
33824;SDS011;20127;48.962;8.342;2023-04-25T14:55:58;7.20;;;2.70;;
33824;SDS011;20127;48.962;8.342;2023-04-25T14:59:00;3.20;;;2.85;;
33824;SDS011;20127;48.962;8.342;2023-04-25T15:02:02;5.40;;;2.70;;
33824;SDS011;20127;48.962;8.342;2023-04-25T15:05:05;4.93;;;3.17;;
33824;SDS011;20127;48.962;8.342;2023-04-25T15:08:08;5.55;;;3.65;;
33824;SDS011;20127;48.962;8.342;2023-04-25T15:11:10;8.23;;;3.80;;
33824;SDS011;20127;48.962;8.342;2023-04-25T15:14:12;6.35;;;4.72;;
33824;SDS011;20127;48.962;8.342;2023-04-25T15:17:13;5.88;;;3.00;;
33824;SDS011;20127;48.962;8.342;2023-04-25T15:20:16;3.75;;;3.38;;
33824;SDS011;20127;48.962;8.342;2023-04-25T15:23:18;7.40;;;3.22;;
33824;SDS011;20127;48.962;8.342;2023-04-25T15:26:21;4.05;;;3.75;;
33824;SDS011;20127;48.962;8.342;2023-04-25T15:29:22;4.97;;;4.55;;
33824;SDS011;20127;48.962;8.342;2023-04-25T15:32:24;6.20;;;4.65;;
33824;SDS011;20127;48.962;8.342;2023-04-25T15:39:21;9.90;;;5.75;;
33824;SDS011;20127;48.962;8.342;2023-04-25T15:42:22;6.47;;;4.72;;
33824;SDS011;20127;48.962;8.342;2023-04-25T15:45:25;7.53;;;6.82;;
33824;SDS011;20127;48.962;8.342;2023-04-25T15:48:27;7.40;;;5.03;;
33824;SDS011;20127;48.962;8.342;2023-04-25T15:51:34;6.70;;;5.15;;
33824;SDS011;20127;48.962;8.342;2023-04-25T15:54:52;7.55;;;4.97;;
33824;SDS011;20127;48.962;8.342;2023-04-25T15:57:53;13.25;;;11.68;;
33824;SDS011;20127;48.962;8.342;2023-04-25T16:00:55;5.75;;;4.82;;
33824;SDS011;20127;48.962;8.342;2023-04-25T16:03:57;5.28;;;4.72;;
33824;SDS011;20127;48.962;8.342;2023-04-25T16:06:59;7.18;;;5.55;;
33824;SDS011;20127;48.962;8.342;2023-04-25T16:10:02;5.45;;;4.93;;
33824;SDS011;20127;48.962;8.342;2023-04-25T16:13:04;4.93;;;4.35;;
33824;SDS011;20127;48.962;8.342;2023-04-25T16:16:06;6.50;;;5.55;;
33824;SDS011;20127;48.962;8.342;2023-04-25T16:19:08;7.13;;;4.53;;
33824;SDS011;20127;48.962;8.342;2023-04-25T16:22:10;6.40;;;4.35;;
33824;SDS011;20127;48.962;8.342;2023-04-25T16:25:16;10.15;;;7.50;;
33824;SDS011;20127;48.962;8.342;2023-04-25T16:28:18;13.73;;;10.93;;
33824;SDS011;20127;48.962;8.342;2023-04-25T16:31:19;18.80;;;14.15;;
33824;SDS011;20127;48.962;8.342;2023-04-25T16:34:21;6.35;;;5.72;;
33824;SDS011;20127;48.962;8.342;2023-04-25T16:37:23;5.18;;;4.03;;
33824;SDS011;20127;48.962;8.342;2023-04-25T16:40:26;6.25;;;4.07;;
33824;SDS011;20127;48.962;8.342;2023-04-25T16:43:28;6.20;;;4.82;;
33824;SDS011;20127;48.962;8.342;2023-04-25T16:46:30;5.38;;;4.25;;
33824;SDS011;20127;48.962;8.342;2023-04-25T16:49:32;5.85;;;4.32;;
33824;SDS011;20127;48.962;8.342;2023-04-25T16:52:34;7.85;;;4.68;;
33824;SDS011;20127;48.962;8.342;2023-04-25T16:55:37;10.50;;;5.65;;
33824;SDS011;20127;48.962;8.342;2023-04-25T16:58:38;7.70;;;5.78;;
33824;SDS011;20127;48.962;8.342;2023-04-25T17:01:40;11.00;;;5.78;;
33824;SDS011;20127;48.962;8.342;2023-04-25T17:04:42;10.20;;;6.28;;
33824;SDS011;20127;48.962;8.342;2023-04-25T17:07:44;7.93;;;6.70;;
33824;SDS011;20127;48.962;8.342;2023-04-25T17:10:47;10.43;;;5.63;;
33824;SDS011;20127;48.962;8.342;2023-04-25T17:13:49;6.22;;;4.97;;
33824;SDS011;20127;48.962;8.342;2023-04-25T17:16:51;11.60;;;6.13;;
33824;SDS011;20127;48.962;8.342;2023-04-25T17:19:53;6.18;;;5.57;;
33824;SDS011;20127;48.962;8.342;2023-04-25T17:22:54;8.55;;;6.00;;
33824;SDS011;20127;48.962;8.342;2023-04-25T17:25:58;12.55;;;6.82;;
33824;SDS011;20127;48.962;8.342;2023-04-25T17:29:00;11.90;;;7.25;;
33824;SDS011;20127;48.962;8.342;2023-04-25T17:32:02;8.73;;;7.90;;
33824;SDS011;20127;48.962;8.342;2023-04-25T17:35:04;10.15;;;6.15;;
33824;SDS011;20127;48.962;8.342;2023-04-25T17:38:06;8.48;;;6.63;;
33824;SDS011;20127;48.962;8.342;2023-04-25T17:41:09;9.75;;;7.20;;
33824;SDS011;20127;48.962;8.342;2023-04-25T17:44:12;12.02;;;7.47;;
33824;SDS011;20127;48.962;8.342;2023-04-25T17:47:13;8.57;;;7.55;;
33824;SDS011;20127;48.962;8.342;2023-04-25T17:50:16;8.60;;;6.65;;
33824;SDS011;20127;48.962;8.342;2023-04-25T17:53:17;15.93;;;8.35;;
33824;SDS011;20127;48.962;8.342;2023-04-25T17:56:20;11.98;;;7.40;;
33824;SDS011;20127;48.962;8.342;2023-04-25T17:59:22;8.98;;;8.07;;
33824;SDS011;20127;48.962;8.342;2023-04-25T18:02:25;9.05;;;7.60;;
33824;SDS011;20127;48.962;8.342;2023-04-25T18:05:27;13.23;;;7.63;;
33824;SDS011;20127;48.962;8.342;2023-04-25T18:08:28;11.02;;;6.80;;
33824;SDS011;20127;48.962;8.342;2023-04-25T18:11:32;11.30;;;7.43;;